sensor_id;sensor_type;location;lat;lon;timestamp;P1;durP1;ratioP1;P2;durP2;ratioP2
14516;SDS011;7344;50.864;4.362;2023-02-01T00:01:54;17.83;;;9.13;;
14516;SDS011;7344;50.864;4.362;2023-02-01T00:04:21;24.63;;;8.90;;
14516;SDS011;7344;50.864;4.362;2023-02-01T00:06:47;24.73;;;9.33;;
14516;SDS011;7344;50.864;4.362;2023-02-01T00:09:13;24.70;;;8.87;;
14516;SDS011;7344;50.864;4.362;2023-02-01T00:11:38;19.77;;;9.07;;
14516;SDS011;7344;50.864;4.362;2023-02-01T00:14:04;22.23;;;9.33;;
14516;SDS011;7344;50.864;4.362;2023-02-01T00:16:30;23.47;;;10.53;;
14516;SDS011;7344;50.864;4.362;2023-02-01T00:18:58;22.17;;;10.03;;
14516;SDS011;7344;50.864;4.362;2023-02-01T00:21:24;20.67;;;10.23;;
14516;SDS011;7344;50.864;4.362;2023-02-01T00:23:50;18.13;;;9.80;;
14516;SDS011;7344;50.864;4.362;2023-02-01T00:26:16;30.57;;;10.70;;
14516;SDS011;7344;50.864;4.362;2023-02-01T00:28:45;27.03;;;10.13;;
14516;SDS011;7344;50.864;4.362;2023-02-01T00:31:11;24.47;;;10.70;;
14516;SDS011;7344;50.864;4.362;2023-02-01T00:33:37;25.40;;;10.53;;
14516;SDS011;7344;50.864;4.362;2023-02-01T00:36:04;26.33;;;10.57;;
14516;SDS011;7344;50.864;4.362;2023-02-01T00:38:31;27.70;;;10.27;;
14516;SDS011;7344;50.864;4.362;2023-02-01T00:43:34;23.20;;;9.97;;
14516;SDS011;7344;50.864;4.362;2023-02-01T00:46:00;19.97;;;9.23;;
14516;SDS011;7344;50.864;4.362;2023-02-01T00:48:26;21.80;;;9.30;;
14516;SDS011;7344;50.864;4.362;2023-02-01T00:50:51;18.03;;;8.77;;
14516;SDS011;7344;50.864;4.362;2023-02-01T00:53:17;21.30;;;8.10;;
14516;SDS011;7344;50.864;4.362;2023-02-01T00:55:47;22.67;;;7.20;;
14516;SDS011;7344;50.864;4.362;2023-02-01T00:58:14;24.27;;;7.33;;
14516;SDS011;7344;50.864;4.362;2023-02-01T01:00:39;20.30;;;6.50;;
14516;SDS011;7344;50.864;4.362;2023-02-01T01:03:05;20.80;;;7.10;;
14516;SDS011;7344;50.864;4.362;2023-02-01T01:05:47;17.23;;;6.70;;
14516;SDS011;7344;50.864;4.362;2023-02-01T01:08:13;19.37;;;6.40;;
14516;SDS011;7344;50.864;4.362;2023-02-01T01:10:40;25.27;;;6.70;;
14516;SDS011;7344;50.864;4.362;2023-02-01T01:13:06;20.77;;;6.70;;
14516;SDS011;7344;50.864;4.362;2023-02-01T01:15:39;18.43;;;7.03;;
14516;SDS011;7344;50.864;4.362;2023-02-01T01:18:05;19.07;;;7.00;;
14516;SDS011;7344;50.864;4.362;2023-02-01T01:20:33;18.37;;;7.20;;
14516;SDS011;7344;50.864;4.362;2023-02-01T01:23:00;18.17;;;7.37;;
14516;SDS011;7344;50.864;4.362;2023-02-01T01:25:26;17.77;;;6.53;;
14516;SDS011;7344;50.864;4.362;2023-02-01T01:27:51;16.10;;;6.60;;
14516;SDS011;7344;50.864;4.362;2023-02-01T01:30:17;21.50;;;6.73;;
14516;SDS011;7344;50.864;4.362;2023-02-01T01:32:43;21.80;;;6.57;;
14516;SDS011;7344;50.864;4.362;2023-02-01T01:35:09;17.93;;;5.87;;
14516;SDS011;7344;50.864;4.362;2023-02-01T01:37:35;25.03;;;6.00;;
14516;SDS011;7344;50.864;4.362;2023-02-01T01:40:01;24.03;;;6.10;;
14516;SDS011;7344;50.864;4.362;2023-02-01T01:42:28;20.27;;;5.50;;
14516;SDS011;7344;50.864;4.362;2023-02-01T01:47:41;20.50;;;5.60;;
14516;SDS011;7344;50.864;4.362;2023-02-01T01:50:13;15.53;;;5.03;;
14516;SDS011;7344;50.864;4.362;2023-02-01T01:52:42;15.73;;;5.17;;
14516;SDS011;7344;50.864;4.362;2023-02-01T01:55:09;15.97;;;5.27;;
14516;SDS011;7344;50.864;4.362;2023-02-01T01:57:36;18.00;;;4.90;;
14516;SDS011;7344;50.864;4.362;2023-02-01T02:00:22;20.23;;;4.97;;
14516;SDS011;7344;50.864;4.362;2023-02-01T02:02:50;17.67;;;4.70;;
14516;SDS011;7344;50.864;4.362;2023-02-01T02:05:21;20.17;;;5.40;;
14516;SDS011;7344;50.864;4.362;2023-02-01T02:07:48;14.70;;;4.83;;
14516;SDS011;7344;50.864;4.362;2023-02-01T02:10:15;13.53;;;4.67;;
14516;SDS011;7344;50.864;4.362;2023-02-01T02:12:42;18.90;;;5.20;;
14516;SDS011;7344;50.864;4.362;2023-02-01T02:15:11;16.33;;;4.77;;
14516;SDS011;7344;50.864;4.362;2023-02-01T02:20:22;14.37;;;4.60;;
14516;SDS011;7344;50.864;4.362;2023-02-01T02:26:11;13.47;;;4.33;;
14516;SDS011;7344;50.864;4.362;2023-02-01T02:34:39;14.17;;;4.73;;
14516;SDS011;7344;50.864;4.362;2023-02-01T02:45:45;13.33;;;4.87;;
14516;SDS011;7344;50.864;4.362;2023-02-01T02:51:21;18.17;;;4.73;;
14516;SDS011;7344;50.864;4.362;2023-02-01T02:54:12;13.97;;;4.47;;
14516;SDS011;7344;50.864;4.362;2023-02-01T02:56:59;21.70;;;4.40;;
14516;SDS011;7344;50.864;4.362;2023-02-01T02:59:47;17.03;;;5.13;;
14516;SDS011;7344;50.864;4.362;2023-02-01T03:02:32;22.87;;;4.50;;
14516;SDS011;7344;50.864;4.362;2023-02-01T03:05:17;19.67;;;4.67;;
14516;SDS011;7344;50.864;4.362;2023-02-01T03:10:10;17.77;;;5.17;;
14516;SDS011;7344;50.864;4.362;2023-02-01T03:12:48;17.27;;;5.27;;
14516;SDS011;7344;50.864;4.362;2023-02-01T03:15:21;16.50;;;4.57;;
14516;SDS011;7344;50.864;4.362;2023-02-01T03:17:53;16.33;;;4.17;;
14516;SDS011;7344;50.864;4.362;2023-02-01T03:20:22;17.67;;;4.20;;
14516;SDS011;7344;50.864;4.362;2023-02-01T03:22:50;15.93;;;4.80;;
14516;SDS011;7344;50.864;4.362;2023-02-01T03:25:19;17.93;;;4.33;;
14516;SDS011;7344;50.864;4.362;2023-02-01T03:28:11;24.50;;;4.63;;
14516;SDS011;7344;50.864;4.362;2023-02-01T03:30:37;16.67;;;4.20;;
14516;SDS011;7344;50.864;4.362;2023-02-01T03:33:07;14.03;;;4.60;;
14516;SDS011;7344;50.864;4.362;2023-02-01T03:43:39;23.23;;;4.83;;
14516;SDS011;7344;50.864;4.362;2023-02-01T03:46:14;14.80;;;4.17;;
14516;SDS011;7344;50.864;4.362;2023-02-01T03:48:46;17.60;;;4.87;;
14516;SDS011;7344;50.864;4.362;2023-02-01T03:51:13;14.07;;;4.10;;
14516;SDS011;7344;50.864;4.362;2023-02-01T03:53:39;18.80;;;4.13;;
14516;SDS011;7344;50.864;4.362;2023-02-01T03:56:06;17.13;;;4.60;;
14516;SDS011;7344;50.864;4.362;2023-02-01T03:58:33;16.80;;;4.70;;
14516;SDS011;7344;50.864;4.362;2023-02-01T04:00:59;24.73;;;4.80;;
14516;SDS011;7344;50.864;4.362;2023-02-01T04:03:25;16.83;;;4.13;;
14516;SDS011;7344;50.864;4.362;2023-02-01T04:05:52;18.73;;;4.57;;
14516;SDS011;7344;50.864;4.362;2023-02-01T04:08:22;16.60;;;4.37;;
14516;SDS011;7344;50.864;4.362;2023-02-01T04:10:48;15.83;;;4.30;;
14516;SDS011;7344;50.864;4.362;2023-02-01T04:13:14;18.60;;;4.30;;
14516;SDS011;7344;50.864;4.362;2023-02-01T04:15:39;18.93;;;4.73;;
14516;SDS011;7344;50.864;4.362;2023-02-01T04:18:05;19.17;;;4.73;;
14516;SDS011;7344;50.864;4.362;2023-02-01T04:20:31;18.80;;;4.07;;
14516;SDS011;7344;50.864;4.362;2023-02-01T04:22:57;21.90;;;4.47;;
14516;SDS011;7344;50.864;4.362;2023-02-01T04:25:22;18.33;;;4.53;;
14516;SDS011;7344;50.864;4.362;2023-02-01T04:27:48;18.03;;;4.57;;
14516;SDS011;7344;50.864;4.362;2023-02-01T04:30:14;18.53;;;4.13;;
14516;SDS011;7344;50.864;4.362;2023-02-01T04:32:40;22.57;;;4.87;;
14516;SDS011;7344;50.864;4.362;2023-02-01T04:35:06;23.73;;;4.97;;
14516;SDS011;7344;50.864;4.362;2023-02-01T04:37:32;24.77;;;5.07;;
14516;SDS011;7344;50.864;4.362;2023-02-01T04:39:58;17.17;;;4.17;;
14516;SDS011;7344;50.864;4.362;2023-02-01T04:42:24;16.30;;;4.07;;
14516;SDS011;7344;50.864;4.362;2023-02-01T04:44:50;18.10;;;3.93;;
14516;SDS011;7344;50.864;4.362;2023-02-01T04:47:15;19.23;;;4.70;;
14516;SDS011;7344;50.864;4.362;2023-02-01T04:49:41;18.80;;;4.60;;
14516;SDS011;7344;50.864;4.362;2023-02-01T04:52:07;19.10;;;4.27;;
14516;SDS011;7344;50.864;4.362;2023-02-01T04:54:32;20.97;;;4.87;;
14516;SDS011;7344;50.864;4.362;2023-02-01T04:56:58;22.40;;;4.50;;
14516;SDS011;7344;50.864;4.362;2023-02-01T04:59:24;21.90;;;4.70;;
14516;SDS011;7344;50.864;4.362;2023-02-01T05:01:51;15.47;;;5.07;;
14516;SDS011;7344;50.864;4.362;2023-02-01T05:04:16;21.23;;;4.93;;
14516;SDS011;7344;50.864;4.362;2023-02-01T05:06:45;16.40;;;4.37;;
14516;SDS011;7344;50.864;4.362;2023-02-01T05:09:11;18.30;;;4.23;;
14516;SDS011;7344;50.864;4.362;2023-02-01T05:11:37;19.80;;;4.63;;
14516;SDS011;7344;50.864;4.362;2023-02-01T05:14:21;17.40;;;4.03;;
14516;SDS011;7344;50.864;4.362;2023-02-01T05:16:47;20.90;;;4.53;;
14516;SDS011;7344;50.864;4.362;2023-02-01T05:19:13;19.40;;;4.30;;
14516;SDS011;7344;50.864;4.362;2023-02-01T05:21:38;25.20;;;5.10;;
14516;SDS011;7344;50.864;4.362;2023-02-01T05:24:04;22.87;;;4.87;;
14516;SDS011;7344;50.864;4.362;2023-02-01T05:26:39;19.13;;;3.90;;
14516;SDS011;7344;50.864;4.362;2023-02-01T05:29:05;18.30;;;4.47;;
14516;SDS011;7344;50.864;4.362;2023-02-01T05:31:32;19.83;;;4.97;;
14516;SDS011;7344;50.864;4.362;2023-02-01T05:33:57;17.43;;;4.00;;
14516;SDS011;7344;50.864;4.362;2023-02-01T05:36:23;16.57;;;4.27;;
14516;SDS011;7344;50.864;4.362;2023-02-01T05:38:49;17.47;;;4.40;;
14516;SDS011;7344;50.864;4.362;2023-02-01T05:41:14;17.27;;;4.93;;
14516;SDS011;7344;50.864;4.362;2023-02-01T05:43:40;19.37;;;5.37;;
14516;SDS011;7344;50.864;4.362;2023-02-01T05:46:05;22.97;;;4.40;;
14516;SDS011;7344;50.864;4.362;2023-02-01T05:48:31;20.07;;;5.20;;
14516;SDS011;7344;50.864;4.362;2023-02-01T05:50:57;17.70;;;4.63;;
14516;SDS011;7344;50.864;4.362;2023-02-01T05:53:22;18.40;;;4.80;;
14516;SDS011;7344;50.864;4.362;2023-02-01T05:55:48;16.27;;;4.60;;
14516;SDS011;7344;50.864;4.362;2023-02-01T05:58:13;21.07;;;4.63;;
14516;SDS011;7344;50.864;4.362;2023-02-01T06:00:39;18.63;;;4.33;;
14516;SDS011;7344;50.864;4.362;2023-02-01T06:03:05;17.03;;;4.30;;
14516;SDS011;7344;50.864;4.362;2023-02-01T06:05:31;20.93;;;4.73;;
14516;SDS011;7344;50.864;4.362;2023-02-01T06:07:57;20.73;;;4.33;;
14516;SDS011;7344;50.864;4.362;2023-02-01T06:10:23;26.17;;;5.00;;
14516;SDS011;7344;50.864;4.362;2023-02-01T06:12:49;17.67;;;4.57;;
14516;SDS011;7344;50.864;4.362;2023-02-01T06:15:15;13.73;;;4.33;;
14516;SDS011;7344;50.864;4.362;2023-02-01T06:17:41;15.07;;;4.83;;
14516;SDS011;7344;50.864;4.362;2023-02-01T06:20:09;15.97;;;4.10;;
14516;SDS011;7344;50.864;4.362;2023-02-01T06:22:36;14.40;;;4.47;;
14516;SDS011;7344;50.864;4.362;2023-02-01T06:25:05;22.50;;;4.03;;
14516;SDS011;7344;50.864;4.362;2023-02-01T06:27:32;20.03;;;4.53;;
14516;SDS011;7344;50.864;4.362;2023-02-01T06:29:58;21.90;;;4.30;;
14516;SDS011;7344;50.864;4.362;2023-02-01T06:32:24;21.23;;;4.90;;
14516;SDS011;7344;50.864;4.362;2023-02-01T06:34:50;20.63;;;4.80;;
14516;SDS011;7344;50.864;4.362;2023-02-01T06:37:17;22.77;;;4.90;;
14516;SDS011;7344;50.864;4.362;2023-02-01T06:39:43;25.43;;;4.97;;
14516;SDS011;7344;50.864;4.362;2023-02-01T06:42:09;19.57;;;4.73;;
14516;SDS011;7344;50.864;4.362;2023-02-01T06:44:34;19.80;;;4.50;;
14516;SDS011;7344;50.864;4.362;2023-02-01T06:47:00;13.80;;;4.40;;
14516;SDS011;7344;50.864;4.362;2023-02-01T06:49:26;25.63;;;5.10;;
14516;SDS011;7344;50.864;4.362;2023-02-01T06:51:51;24.90;;;4.90;;
14516;SDS011;7344;50.864;4.362;2023-02-01T06:54:17;19.10;;;4.90;;
14516;SDS011;7344;50.864;4.362;2023-02-01T06:56:43;19.70;;;4.80;;
14516;SDS011;7344;50.864;4.362;2023-02-01T06:59:09;18.60;;;4.70;;
14516;SDS011;7344;50.864;4.362;2023-02-01T07:01:35;23.40;;;5.37;;
14516;SDS011;7344;50.864;4.362;2023-02-01T07:04:00;21.90;;;4.90;;
14516;SDS011;7344;50.864;4.362;2023-02-01T07:06:26;19.27;;;5.40;;
14516;SDS011;7344;50.864;4.362;2023-02-01T07:08:52;19.47;;;4.47;;
14516;SDS011;7344;50.864;4.362;2023-02-01T07:11:20;22.27;;;4.93;;
14516;SDS011;7344;50.864;4.362;2023-02-01T07:13:47;19.30;;;4.97;;
14516;SDS011;7344;50.864;4.362;2023-02-01T07:16:14;21.70;;;5.47;;
14516;SDS011;7344;50.864;4.362;2023-02-01T07:18:41;25.80;;;5.03;;
14516;SDS011;7344;50.864;4.362;2023-02-01T07:21:07;32.23;;;5.60;;
14516;SDS011;7344;50.864;4.362;2023-02-01T07:23:33;21.90;;;5.10;;
14516;SDS011;7344;50.864;4.362;2023-02-01T07:26:00;25.07;;;5.70;;
14516;SDS011;7344;50.864;4.362;2023-02-01T07:28:29;22.23;;;5.83;;
14516;SDS011;7344;50.864;4.362;2023-02-01T07:31:04;18.47;;;5.53;;
14516;SDS011;7344;50.864;4.362;2023-02-01T07:33:34;23.83;;;4.93;;
14516;SDS011;7344;50.864;4.362;2023-02-01T07:36:00;24.83;;;5.60;;
14516;SDS011;7344;50.864;4.362;2023-02-01T07:38:27;21.43;;;5.03;;
14516;SDS011;7344;50.864;4.362;2023-02-01T07:40:57;18.97;;;5.23;;
14516;SDS011;7344;50.864;4.362;2023-02-01T07:43:23;25.90;;;5.03;;
14516;SDS011;7344;50.864;4.362;2023-02-01T07:45:52;18.10;;;5.10;;
14516;SDS011;7344;50.864;4.362;2023-02-01T07:48:21;22.53;;;5.70;;
14516;SDS011;7344;50.864;4.362;2023-02-01T07:50:47;23.00;;;5.00;;
14516;SDS011;7344;50.864;4.362;2023-02-01T07:53:14;23.67;;;5.00;;
14516;SDS011;7344;50.864;4.362;2023-02-01T07:55:40;26.63;;;5.90;;
14516;SDS011;7344;50.864;4.362;2023-02-01T07:58:06;17.30;;;5.03;;
14516;SDS011;7344;50.864;4.362;2023-02-01T08:00:32;14.63;;;4.50;;
14516;SDS011;7344;50.864;4.362;2023-02-01T08:03:16;24.17;;;5.40;;
14516;SDS011;7344;50.864;4.362;2023-02-01T08:05:42;25.37;;;5.40;;
14516;SDS011;7344;50.864;4.362;2023-02-01T08:08:07;24.03;;;5.40;;
14516;SDS011;7344;50.864;4.362;2023-02-01T08:10:33;20.27;;;4.90;;
14516;SDS011;7344;50.864;4.362;2023-02-01T08:13:00;18.50;;;5.00;;
14516;SDS011;7344;50.864;4.362;2023-02-01T08:15:26;23.53;;;5.07;;
14516;SDS011;7344;50.864;4.362;2023-02-01T08:17:52;18.87;;;4.90;;
14516;SDS011;7344;50.864;4.362;2023-02-01T08:20:19;27.80;;;5.77;;
14516;SDS011;7344;50.864;4.362;2023-02-01T08:22:51;22.60;;;5.10;;
14516;SDS011;7344;50.864;4.362;2023-02-01T08:25:17;20.03;;;5.40;;
14516;SDS011;7344;50.864;4.362;2023-02-01T08:27:43;19.33;;;5.50;;
14516;SDS011;7344;50.864;4.362;2023-02-01T08:30:10;12.33;;;4.30;;
14516;SDS011;7344;50.864;4.362;2023-02-01T08:32:36;23.40;;;5.13;;
14516;SDS011;7344;50.864;4.362;2023-02-01T08:35:02;20.57;;;4.93;;
14516;SDS011;7344;50.864;4.362;2023-02-01T08:37:29;17.27;;;5.40;;
14516;SDS011;7344;50.864;4.362;2023-02-01T08:39:54;21.67;;;4.77;;
14516;SDS011;7344;50.864;4.362;2023-02-01T08:42:20;26.83;;;5.17;;
14516;SDS011;7344;50.864;4.362;2023-02-01T08:45:04;17.97;;;5.30;;
14516;SDS011;7344;50.864;4.362;2023-02-01T08:47:32;20.17;;;4.70;;
14516;SDS011;7344;50.864;4.362;2023-02-01T08:49:59;21.37;;;5.20;;
14516;SDS011;7344;50.864;4.362;2023-02-01T08:52:24;19.07;;;4.70;;
14516;SDS011;7344;50.864;4.362;2023-02-01T08:54:50;18.23;;;5.00;;
14516;SDS011;7344;50.864;4.362;2023-02-01T08:57:16;17.33;;;4.33;;
14516;SDS011;7344;50.864;4.362;2023-02-01T08:59:42;18.77;;;5.40;;
14516;SDS011;7344;50.864;4.362;2023-02-01T09:02:12;21.87;;;5.47;;
14516;SDS011;7344;50.864;4.362;2023-02-01T09:04:39;18.07;;;4.63;;
14516;SDS011;7344;50.864;4.362;2023-02-01T09:07:05;17.70;;;4.70;;
14516;SDS011;7344;50.864;4.362;2023-02-01T09:09:31;16.47;;;4.83;;
14516;SDS011;7344;50.864;4.362;2023-02-01T09:11:57;20.60;;;5.10;;
14516;SDS011;7344;50.864;4.362;2023-02-01T09:14:22;18.83;;;4.70;;
14516;SDS011;7344;50.864;4.362;2023-02-01T09:16:48;20.30;;;4.63;;
14516;SDS011;7344;50.864;4.362;2023-02-01T09:19:14;17.73;;;5.10;;
14516;SDS011;7344;50.864;4.362;2023-02-01T09:21:39;23.60;;;5.53;;
14516;SDS011;7344;50.864;4.362;2023-02-01T09:24:05;14.27;;;4.30;;
14516;SDS011;7344;50.864;4.362;2023-02-01T09:26:32;14.83;;;5.10;;
14516;SDS011;7344;50.864;4.362;2023-02-01T09:28:57;18.03;;;5.60;;
14516;SDS011;7344;50.864;4.362;2023-02-01T09:31:24;16.50;;;5.37;;
14516;SDS011;7344;50.864;4.362;2023-02-01T09:33:49;23.67;;;5.97;;
14516;SDS011;7344;50.864;4.362;2023-02-01T09:36:15;14.13;;;5.17;;
14516;SDS011;7344;50.864;4.362;2023-02-01T09:38:40;16.53;;;5.20;;
14516;SDS011;7344;50.864;4.362;2023-02-01T09:46:46;14.88;;;4.50;;
14516;SDS011;7344;50.864;4.362;2023-02-01T09:49:14;14.68;;;4.80;;
14516;SDS011;7344;50.864;4.362;2023-02-01T09:51:44;21.60;;;5.60;;
14516;SDS011;7344;50.864;4.362;2023-02-01T09:56:46;14.70;;;4.93;;
14516;SDS011;7344;50.864;4.362;2023-02-01T09:59:32;17.90;;;4.95;;
14516;SDS011;7344;50.864;4.362;2023-02-01T10:02:13;14.48;;;4.18;;
14516;SDS011;7344;50.864;4.362;2023-02-01T10:04:45;10.35;;;3.80;;
14516;SDS011;7344;50.864;4.362;2023-02-01T10:26:32;13.73;;;3.83;;
14516;SDS011;7344;50.864;4.362;2023-02-01T10:29:02;15.57;;;4.03;;
14516;SDS011;7344;50.864;4.362;2023-02-01T10:31:29;10.57;;;3.63;;
14516;SDS011;7344;50.864;4.362;2023-02-01T10:33:59;11.80;;;3.90;;
14516;SDS011;7344;50.864;4.362;2023-02-01T10:36:33;10.98;;;4.03;;
14516;SDS011;7344;50.864;4.362;2023-02-01T10:39:04;10.93;;;3.77;;
14516;SDS011;7344;50.864;4.362;2023-02-01T10:41:33;15.37;;;3.70;;
14516;SDS011;7344;50.864;4.362;2023-02-01T10:44:02;11.73;;;3.73;;
14516;SDS011;7344;50.864;4.362;2023-02-01T10:46:31;12.70;;;2.93;;
14516;SDS011;7344;50.864;4.362;2023-02-01T10:48:58;15.03;;;3.83;;
14516;SDS011;7344;50.864;4.362;2023-02-01T10:51:31;9.10;;;3.03;;
14516;SDS011;7344;50.864;4.362;2023-02-01T10:54:32;10.93;;;3.60;;
14516;SDS011;7344;50.864;4.362;2023-02-01T10:56:57;9.07;;;3.43;;
14516;SDS011;7344;50.864;4.362;2023-02-01T10:59:27;11.38;;;3.58;;
14516;SDS011;7344;50.864;4.362;2023-02-01T11:01:58;12.53;;;3.40;;
14516;SDS011;7344;50.864;4.362;2023-02-01T11:04:26;14.43;;;4.30;;
14516;SDS011;7344;50.864;4.362;2023-02-01T11:09:48;14.70;;;3.80;;
14516;SDS011;7344;50.864;4.362;2023-02-01T11:12:23;9.27;;;2.87;;
14516;SDS011;7344;50.864;4.362;2023-02-01T11:15:11;9.90;;;3.30;;
14516;SDS011;7344;50.864;4.362;2023-02-01T11:17:45;12.10;;;3.53;;
14516;SDS011;7344;50.864;4.362;2023-02-01T11:20:20;15.80;;;4.00;;
14516;SDS011;7344;50.864;4.362;2023-02-01T11:22:56;8.03;;;3.27;;
14516;SDS011;7344;50.864;4.362;2023-02-01T11:25:22;12.00;;;3.80;;
14516;SDS011;7344;50.864;4.362;2023-02-01T11:27:49;13.97;;;3.50;;
14516;SDS011;7344;50.864;4.362;2023-02-01T11:30:17;10.50;;;3.67;;
14516;SDS011;7344;50.864;4.362;2023-02-01T11:32:57;11.57;;;3.87;;
14516;SDS011;7344;50.864;4.362;2023-02-01T11:35:24;13.50;;;3.60;;
14516;SDS011;7344;50.864;4.362;2023-02-01T11:37:54;13.67;;;3.60;;
14516;SDS011;7344;50.864;4.362;2023-02-01T11:45:57;11.33;;;3.87;;
14516;SDS011;7344;50.864;4.362;2023-02-01T11:48:26;16.90;;;3.67;;
14516;SDS011;7344;50.864;4.362;2023-02-01T12:02:19;16.40;;;3.13;;
14516;SDS011;7344;50.864;4.362;2023-02-01T12:10:28;8.93;;;2.97;;
14516;SDS011;7344;50.864;4.362;2023-02-01T12:15:51;19.00;;;8.63;;
14516;SDS011;7344;50.864;4.362;2023-02-01T12:24:19;6.43;;;2.30;;
14516;SDS011;7344;50.864;4.362;2023-02-01T12:31:54;5.43;;;2.40;;
14516;SDS011;7344;50.864;4.362;2023-02-01T12:37:33;10.70;;;2.27;;
14516;SDS011;7344;50.864;4.362;2023-02-01T12:42:40;8.93;;;2.17;;
14516;SDS011;7344;50.864;4.362;2023-02-01T12:45:26;11.33;;;2.73;;
14516;SDS011;7344;50.864;4.362;2023-02-01T12:47:55;8.63;;;2.57;;
14516;SDS011;7344;50.864;4.362;2023-02-01T12:50:27;8.40;;;2.20;;
14516;SDS011;7344;50.864;4.362;2023-02-01T12:53:08;6.83;;;2.53;;
14516;SDS011;7344;50.864;4.362;2023-02-01T12:55:47;7.83;;;2.20;;
14516;SDS011;7344;50.864;4.362;2023-02-01T13:01:20;8.83;;;2.83;;
14516;SDS011;7344;50.864;4.362;2023-02-01T13:06:50;7.47;;;2.33;;
14516;SDS011;7344;50.864;4.362;2023-02-01T13:09:26;8.43;;;2.20;;
14516;SDS011;7344;50.864;4.362;2023-02-01T13:11:53;6.07;;;2.00;;
14516;SDS011;7344;50.864;4.362;2023-02-01T13:14:32;8.20;;;2.50;;
14516;SDS011;7344;50.864;4.362;2023-02-01T13:19:28;6.37;;;2.00;;
14516;SDS011;7344;50.864;4.362;2023-02-01T13:22:03;10.57;;;2.57;;
14516;SDS011;7344;50.864;4.362;2023-02-01T13:24:38;11.77;;;2.53;;
14516;SDS011;7344;50.864;4.362;2023-02-01T13:27:14;10.33;;;3.03;;
14516;SDS011;7344;50.864;4.362;2023-02-01T13:29:45;10.10;;;2.23;;
14516;SDS011;7344;50.864;4.362;2023-02-01T13:40:44;8.43;;;2.27;;
14516;SDS011;7344;50.864;4.362;2023-02-01T13:43:24;10.23;;;2.57;;
14516;SDS011;7344;50.864;4.362;2023-02-01T13:45:56;10.77;;;2.63;;
14516;SDS011;7344;50.864;4.362;2023-02-01T13:51:06;7.93;;;2.27;;
14516;SDS011;7344;50.864;4.362;2023-02-01T13:53:35;8.83;;;2.40;;
14516;SDS011;7344;50.864;4.362;2023-02-01T13:58:41;6.93;;;2.17;;
14516;SDS011;7344;50.864;4.362;2023-02-01T14:16:38;8.20;;;2.23;;
14516;SDS011;7344;50.864;4.362;2023-02-01T14:19:06;11.87;;;2.50;;
14516;SDS011;7344;50.864;4.362;2023-02-01T14:21:35;15.77;;;3.13;;
14516;SDS011;7344;50.864;4.362;2023-02-01T14:24:26;6.63;;;2.20;;
14516;SDS011;7344;50.864;4.362;2023-02-01T14:26:54;11.83;;;2.97;;
14516;SDS011;7344;50.864;4.362;2023-02-01T14:29:25;12.47;;;3.10;;
14516;SDS011;7344;50.864;4.362;2023-02-01T14:32:00;14.40;;;3.10;;
14516;SDS011;7344;50.864;4.362;2023-02-01T14:58:05;9.93;;;2.23;;
14516;SDS011;7344;50.864;4.362;2023-02-01T15:00:50;14.77;;;3.10;;
14516;SDS011;7344;50.864;4.362;2023-02-01T15:06:01;12.50;;;2.83;;
14516;SDS011;7344;50.864;4.362;2023-02-01T15:08:32;5.20;;;2.60;;
14516;SDS011;7344;50.864;4.362;2023-02-01T15:11:02;12.13;;;3.10;;
14516;SDS011;7344;50.864;4.362;2023-02-01T15:13:31;11.13;;;3.67;;
14516;SDS011;7344;50.864;4.362;2023-02-01T15:16:13;9.60;;;3.03;;
14516;SDS011;7344;50.864;4.362;2023-02-01T15:18:40;12.93;;;3.10;;
14516;SDS011;7344;50.864;4.362;2023-02-01T15:21:12;11.07;;;3.27;;
14516;SDS011;7344;50.864;4.362;2023-02-01T15:23:41;7.80;;;2.40;;
14516;SDS011;7344;50.864;4.362;2023-02-01T15:26:06;13.50;;;3.80;;
14516;SDS011;7344;50.864;4.362;2023-02-01T15:28:32;13.73;;;3.20;;
14516;SDS011;7344;50.864;4.362;2023-02-01T15:30:59;12.47;;;3.03;;
14516;SDS011;7344;50.864;4.362;2023-02-01T15:33:26;9.73;;;2.77;;
14516;SDS011;7344;50.864;4.362;2023-02-01T15:35:54;14.27;;;3.37;;
14516;SDS011;7344;50.864;4.362;2023-02-01T15:38:40;12.77;;;3.70;;
14516;SDS011;7344;50.864;4.362;2023-02-01T15:46:29;9.87;;;3.10;;
14516;SDS011;7344;50.864;4.362;2023-02-01T15:48:58;15.00;;;3.30;;
14516;SDS011;7344;50.864;4.362;2023-02-01T15:51:25;11.53;;;3.67;;
14516;SDS011;7344;50.864;4.362;2023-02-01T15:53:57;12.27;;;3.83;;
14516;SDS011;7344;50.864;4.362;2023-02-01T15:56:33;17.17;;;3.40;;
14516;SDS011;7344;50.864;4.362;2023-02-01T15:59:02;13.07;;;3.80;;
14516;SDS011;7344;50.864;4.362;2023-02-01T16:01:34;14.40;;;3.73;;
14516;SDS011;7344;50.864;4.362;2023-02-01T16:06:38;15.33;;;3.70;;
14516;SDS011;7344;50.864;4.362;2023-02-01T16:09:12;14.43;;;3.10;;
14516;SDS011;7344;50.864;4.362;2023-02-01T16:11:41;13.63;;;3.27;;
14516;SDS011;7344;50.864;4.362;2023-02-01T16:14:24;13.10;;;3.97;;
14516;SDS011;7344;50.864;4.362;2023-02-01T16:16:50;15.73;;;3.73;;
14516;SDS011;7344;50.864;4.362;2023-02-01T16:19:17;10.67;;;3.40;;
14516;SDS011;7344;50.864;4.362;2023-02-01T16:21:43;13.07;;;3.90;;
14516;SDS011;7344;50.864;4.362;2023-02-01T16:24:10;15.47;;;4.13;;
14516;SDS011;7344;50.864;4.362;2023-02-01T16:26:39;15.33;;;3.60;;
14516;SDS011;7344;50.864;4.362;2023-02-01T16:29:05;14.20;;;3.77;;
14516;SDS011;7344;50.864;4.362;2023-02-01T16:31:35;18.53;;;4.00;;
14516;SDS011;7344;50.864;4.362;2023-02-01T16:34:02;13.60;;;3.73;;
14516;SDS011;7344;50.864;4.362;2023-02-01T16:36:30;15.20;;;3.77;;
14516;SDS011;7344;50.864;4.362;2023-02-01T16:38:55;13.03;;;4.13;;
14516;SDS011;7344;50.864;4.362;2023-02-01T16:41:22;13.00;;;2.90;;
14516;SDS011;7344;50.864;4.362;2023-02-01T16:43:52;13.90;;;3.77;;
14516;SDS011;7344;50.864;4.362;2023-02-01T16:46:20;14.47;;;3.90;;
14516;SDS011;7344;50.864;4.362;2023-02-01T16:48:56;13.23;;;3.67;;
14516;SDS011;7344;50.864;4.362;2023-02-01T16:51:23;16.33;;;3.80;;
14516;SDS011;7344;50.864;4.362;2023-02-01T16:53:51;14.87;;;4.10;;
14516;SDS011;7344;50.864;4.362;2023-02-01T16:56:18;18.43;;;4.47;;
14516;SDS011;7344;50.864;4.362;2023-02-01T16:58:45;13.37;;;3.90;;
14516;SDS011;7344;50.864;4.362;2023-02-01T17:01:12;17.37;;;3.13;;
14516;SDS011;7344;50.864;4.362;2023-02-01T17:03:40;12.97;;;4.13;;
14516;SDS011;7344;50.864;4.362;2023-02-01T17:06:10;13.17;;;3.67;;
14516;SDS011;7344;50.864;4.362;2023-02-01T17:08:38;17.27;;;3.57;;
14516;SDS011;7344;50.864;4.362;2023-02-01T17:11:07;14.63;;;3.87;;
14516;SDS011;7344;50.864;4.362;2023-02-01T17:13:34;13.83;;;3.70;;
14516;SDS011;7344;50.864;4.362;2023-02-01T17:16:04;14.10;;;3.90;;
14516;SDS011;7344;50.864;4.362;2023-02-01T17:18:35;16.67;;;4.40;;
14516;SDS011;7344;50.864;4.362;2023-02-01T17:21:01;13.60;;;4.50;;
14516;SDS011;7344;50.864;4.362;2023-02-01T17:23:28;13.67;;;3.90;;
14516;SDS011;7344;50.864;4.362;2023-02-01T17:25:54;23.40;;;8.80;;
14516;SDS011;7344;50.864;4.362;2023-02-01T17:28:21;17.10;;;4.20;;
14516;SDS011;7344;50.864;4.362;2023-02-01T17:30:47;19.13;;;4.30;;
14516;SDS011;7344;50.864;4.362;2023-02-01T17:33:16;14.13;;;3.93;;
14516;SDS011;7344;50.864;4.362;2023-02-01T17:35:46;14.27;;;3.93;;
14516;SDS011;7344;50.864;4.362;2023-02-01T17:38:12;10.97;;;3.97;;
14516;SDS011;7344;50.864;4.362;2023-02-01T17:40:38;17.37;;;4.63;;
14516;SDS011;7344;50.864;4.362;2023-02-01T17:43:04;12.30;;;4.10;;
14516;SDS011;7344;50.864;4.362;2023-02-01T17:45:35;21.00;;;4.67;;
14516;SDS011;7344;50.864;4.362;2023-02-01T17:48:04;14.27;;;5.50;;
14516;SDS011;7344;50.864;4.362;2023-02-01T17:50:31;20.93;;;4.47;;
14516;SDS011;7344;50.864;4.362;2023-02-01T17:52:59;22.13;;;5.33;;
14516;SDS011;7344;50.864;4.362;2023-02-01T17:55:27;20.90;;;5.03;;
14516;SDS011;7344;50.864;4.362;2023-02-01T17:57:52;23.87;;;4.70;;
14516;SDS011;7344;50.864;4.362;2023-02-01T18:00:18;14.57;;;5.87;;
14516;SDS011;7344;50.864;4.362;2023-02-01T18:02:44;18.00;;;4.00;;